Time;durP1;ratioP1;P1;durP2;ratioP2;P2;SDS_P1;SDS_P2;PMS_P1;PMS_P2;Temp;Humidity;BMP_temperature;BMP_pressure;BME280_temperature;BME280_humidity;BME280_pressure;Samples;Min_cycle;Max_cycle;Signal;HPM_P1;HPM_P2
2023/10/30 00:00:50;;;;;;;19.00;14.10;;;;;;;5.59;100.00;101059.27;109376;1253;67098;-56
2023/10/30 00:03:17;;;;;;;26.40;19.10;;;;;;;5.59;100.00;101064.17;109266;1253;72324;-58
2023/10/30 00:05:45;;;;;;;23.00;17.30;;;;;;;5.58;100.00;101066.00;109472;1252;61709;-57
2023/10/30 00:08:13;;;;;;;22.60;19.50;;;;;;;5.58;100.00;101070.14;109314;1253;60174;-57
2023/10/30 00:10:41;;;;;;;27.00;23.30;;;;;;;5.57;100.00;101070.69;109478;1253;73085;-57
2023/10/30 00:13:08;;;;;;;23.90;20.50;;;;;;;5.57;100.00;101069.52;109274;1252;66117;-64
2023/10/30 00:15:36;;;;;;;26.60;20.20;;;;;;;5.58;100.00;101068.92;109298;1253;72888;-59
2023/10/30 00:18:04;;;;;;;22.20;18.60;;;;;;;5.56;100.00;101070.65;109321;1252;60476;-60
2023/10/30 00:20:31;;;;;;;21.70;18.30;;;;;;;5.51;100.00;101078.15;109342;1252;58843;-57
2023/10/30 00:22:59;;;;;;;37.00;28.40;;;;;;;5.45;100.00;101082.80;109223;1253;73864;-63
2023/10/30 00:25:26;;;;;;;27.90;21.90;;;;;;;5.36;100.00;101083.85;109351;1253;67694;-59
2023/10/30 00:27:59;;;;;;;24.60;19.30;;;;;;;5.29;100.00;101083.80;109354;1253;71794;-59
2023/10/30 00:30:27;;;;;;;21.30;16.70;;;;;;;5.23;100.00;101079.27;109310;1253;61749;-59
2023/10/30 00:32:55;;;;;;;24.40;18.40;;;;;;;5.18;100.00;101076.11;109248;1253;58871;-62
2023/10/30 00:35:22;;;;;;;25.40;19.40;;;;;;;5.12;100.00;101075.84;109329;1253;72643;-59
2023/10/30 00:37:50;;;;;;;24.20;19.40;;;;;;;5.09;100.00;101079.27;109333;1253;66932;-59
2023/10/30 00:40:19;;;;;;;25.00;18.40;;;;;;;5.04;100.00;101082.56;109319;1252;72737;-58
2023/10/30 00:42:46;;;;;;;26.00;19.40;;;;;;;5.00;100.00;101085.45;109276;1252;60612;-60
2023/10/30 00:45:15;;;;;;;27.40;18.80;;;;;;;4.97;100.00;101086.05;109328;1252;60091;-58
2023/10/30 00:47:42;;;;;;;25.30;18.90;;;;;;;4.96;100.00;101081.33;109346;1253;72512;-60
2023/10/30 00:50:10;;;;;;;23.00;19.30;;;;;;;4.96;100.00;101077.38;109383;1253;65811;-58
2023/10/30 00:52:37;;;;;;;22.10;18.40;;;;;;;4.96;100.00;101075.31;109274;1253;72733;-58
2023/10/30 00:55:05;;;;;;;25.10;19.30;;;;;;;4.95;100.00;101082.09;109275;1253;61781;-58
2023/10/30 00:57:33;;;;;;;24.70;17.20;;;;;;;4.97;100.00;101088.31;109288;1253;58809;-58
2023/10/30 01:00:00;;;;;;;23.00;17.50;;;;;;;4.98;100.00;101093.02;109303;1252;74033;-59
2023/10/30 01:02:28;;;;;;;20.70;16.20;;;;;;;5.01;100.00;101088.02;109265;1254;65635;-58
2023/10/30 01:04:57;;;;;;;20.10;15.60;;;;;;;5.00;100.00;101097.75;109264;1253;72726;-58
2023/10/30 01:07:25;;;;;;;17.80;14.80;;;;;;;4.98;100.00;101102.21;109389;1252;59299;-60
2023/10/30 01:09:53;;;;;;;19.70;14.50;;;;;;;4.97;100.00;101101.96;109431;1253;58850;-58
2023/10/30 01:12:20;;;;;;;16.20;13.10;;;;;;;4.96;100.00;101110.61;109279;1253;72560;-58
2023/10/30 01:14:48;;;;;;;17.20;11.70;;;;;;;4.94;100.00;101119.37;109443;1252;65689;-60
2023/10/30 01:17:16;;;;;;;15.80;11.30;;;;;;;4.90;100.00;101119.20;109280;1253;73196;-57
2023/10/30 01:19:44;;;;;;;16.80;12.80;;;;;;;4.87;100.00;101121.69;109301;1253;60142;-59
2023/10/30 01:22:11;;;;;;;16.90;12.70;;;;;;;4.83;100.00;101123.58;109320;1254;58888;-58
2023/10/30 01:24:39;;;;;;;16.40;12.10;;;;;;;4.78;100.00;101122.41;109284;1253;73912;-60
2023/10/30 01:27:07;;;;;;;14.80;11.50;;;;;;;4.73;100.00;101119.27;109287;1253;66952;-58
2023/10/30 01:29:35;;;;;;;17.10;12.00;;;;;;;4.67;100.00;101117.14;109329;1253;72678;-57
2023/10/30 01:32:03;;;;;;;19.40;12.50;;;;;;;4.66;100.00;101110.17;109302;1253;59185;-57
2023/10/30 01:34:30;;;;;;;18.70;12.50;;;;;;;4.63;100.00;101109.45;109320;1253;58824;-58
2023/10/30 01:36:58;;;;;;;16.60;11.90;;;;;;;4.63;100.00;101119.35;109261;1253;73939;-57
2023/10/30 01:39:25;;;;;;;15.90;11.50;;;;;;;4.61;100.00;101125.11;109256;1252;67095;-57
2023/10/30 01:41:53;;;;;;;18.20;12.30;;;;;;;4.56;100.00;101125.73;109300;1253;72715;-59
2023/10/30 01:44:21;;;;;;;16.30;11.80;;;;;;;4.51;100.00;101127.67;109454;1253;60138;-57
2023/10/30 01:46:49;;;;;;;17.20;11.30;;;;;;;4.47;100.00;101131.81;109302;1253;58934;-64
2023/10/30 01:49:16;;;;;;;15.80;10.00;;;;;;;4.41;100.00;101135.39;109352;1253;72630;-59
2023/10/30 01:51:44;;;;;;;13.20;9.10;;;;;;;4.39;100.00;101133.83;109258;1253;67085;-59
2023/10/30 01:54:12;;;;;;;12.50;9.70;;;;;;;4.39;100.00;101135.00;109241;1253;71352;-60
2023/10/30 01:56:39;;;;;;;13.30;9.30;;;;;;;4.38;100.00;101136.30;109350;1253;60177;-57
2023/10/30 01:59:07;;;;;;;15.00;10.70;;;;;;;4.37;100.00;101138.60;109205;1252;60525;-57
2023/10/30 02:01:35;;;;;;;15.40;10.50;;;;;;;4.37;100.00;101140.36;109257;1253;74192;-57
2023/10/30 02:04:02;;;;;;;14.10;10.20;;;;;;;4.34;100.00;101143.10;109328;1253;65688;-57
2023/10/30 02:06:30;;;;;;;11.60;8.70;;;;;;;4.32;100.00;101141.05;109329;1253;72724;-56
2023/10/30 02:08:58;;;;;;;14.10;9.70;;;;;;;4.29;100.00;101137.00;109324;1252;60543;-57
2023/10/30 02:11:26;;;;;;;14.40;10.20;;;;;;;4.29;100.00;101141.65;109323;1252;58792;-58
2023/10/30 02:13:55;;;;;;;13.40;9.80;;;;;;;4.29;100.00;101141.15;109326;1253;73042;-57
2023/10/30 02:16:23;;;;;;;15.80;10.00;;;;;;;4.29;100.00;101140.98;109277;1253;67135;-56
2023/10/30 02:18:51;;;;;;;16.50;9.30;;;;;;;4.30;100.00;101146.38;109241;1252;72981;-57
2023/10/30 02:21:19;;;;;;;13.60;9.00;;;;;;;4.30;100.00;101151.54;109323;1253;60475;-59
2023/10/30 02:23:47;;;;;;;12.50;9.50;;;;;;;4.28;100.00;101153.81;109308;1253;60031;-57
2023/10/30 02:26:14;;;;;;;13.70;9.90;;;;;;;4.24;100.00;101155.45;109383;1253;73942;-60
2023/10/30 02:28:42;;;;;;;14.10;9.90;;;;;;;4.20;100.00;101157.14;109331;1253;67156;-57
2023/10/30 02:31:10;;;;;;;14.70;10.70;;;;;;;4.19;100.00;101160.03;109348;1252;70400;-57
2023/10/30 02:33:38;;;;;;;14.70;9.80;;;;;;;4.19;100.00;101161.20;109275;1253;60168;-57
2023/10/30 02:36:06;;;;;;;12.80;9.40;;;;;;;4.22;100.00;101155.09;109364;1253;60157;-57
2023/10/30 02:38:34;;;;;;;15.80;11.00;;;;;;;4.26;100.00;101149.27;109374;1252;72481;-57
2023/10/30 02:41:01;;;;;;;13.90;10.30;;;;;;;4.29;100.00;101145.58;109401;1253;65633;-56
2023/10/30 02:43:29;;;;;;;14.80;11.30;;;;;;;4.34;100.00;101144.90;109342;1253;72793;-58
2023/10/30 02:45:57;;;;;;;16.10;11.20;;;;;;;4.37;100.00;101152.05;109211;1253;61849;-58
2023/10/30 02:48:24;;;;;;;18.10;13.60;;;;;;;4.37;100.00;101155.31;109347;1253;58844;-57
2023/10/30 02:50:52;;;;;;;18.00;13.00;;;;;;;4.36;100.00;101150.57;109354;1252;73909;-59
2023/10/30 02:53:19;;;;;;;17.30;13.20;;;;;;;4.39;100.00;101147.53;109353;1253;66903;-65
2023/10/30 02:55:47;;;;;;;21.30;14.70;;;;;;;4.44;100.00;101145.30;109366;1252;72786;-59
2023/10/30 02:58:15;;;;;;;21.80;15.40;;;;;;;4.49;100.00;101144.52;109343;1253;60493;-57
2023/10/30 03:00:43;;;;;;;25.50;15.40;;;;;;;4.55;100.00;101147.83;109334;1252;58986;-57
2023/10/30 03:03:10;;;;;;;21.90;14.70;;;;;;;4.58;100.00;101154.69;109275;1253;73936;-60
2023/10/30 03:05:39;;;;;;;22.10;16.20;;;;;;;4.59;100.00;101160.14;109330;1253;66257;-57
2023/10/30 03:08:06;;;;;;;20.90;16.00;;;;;;;4.60;100.00;101159.82;109325;1255;72725;-57
2023/10/30 03:10:34;;;;;;;22.60;17.00;;;;;;;4.63;100.00;101157.03;109335;1253;58832;-58
2023/10/30 03:13:02;;;;;;;22.50;16.10;;;;;;;4.66;100.00;101149.05;109371;1253;58734;-57
2023/10/30 03:15:29;;;;;;;25.00;16.20;;;;;;;4.70;100.00;101146.20;109310;1253;74466;-57
2023/10/30 03:17:57;;;;;;;19.60;14.20;;;;;;;4.70;100.00;101143.23;109154;1252;66972;-59
2023/10/30 03:20:25;;;;;;;19.70;14.30;;;;;;;4.69;100.00;101145.34;109299;1253;71772;-57
2023/10/30 03:22:52;;;;;;;28.60;21.10;;;;;;;4.69;100.00;101145.52;109312;1253;60126;-58
2023/10/30 03:25:20;;;;;;;44.80;30.50;;;;;;;4.68;100.00;101146.65;109302;1253;60145;-60
2023/10/30 03:27:48;;;;;;;30.90;21.10;;;;;;;4.68;100.00;101143.55;109384;1253;74275;-58
2023/10/30 03:30:16;;;;;;;27.80;16.60;;;;;;;4.67;100.00;101142.77;109245;1252;66999;-58
2023/10/30 03:32:43;;;;;;;23.00;16.50;;;;;;;4.64;100.00;101141.29;109360;1253;72765;-57
2023/10/30 03:35:11;;;;;;;22.90;16.10;;;;;;;4.59;100.00;101146.80;109361;1252;58847;-56
2023/10/30 03:37:38;;;;;;;17.40;13.10;;;;;;;4.57;100.00;101150.30;109330;1253;60558;-58
2023/10/30 03:40:08;;;;;;;17.20;12.30;;;;;;;4.55;100.00;101150.26;109226;1253;73887;-56
2023/10/30 03:42:36;;;;;;;14.70;10.40;;;;;;;4.57;100.00;101159.08;109392;1253;67112;-56
2023/10/30 03:45:04;;;;;;;16.20;11.90;;;;;;;4.58;100.00;101151.90;109431;1253;71436;-56
2023/10/30 03:47:31;;;;;;;17.60;12.30;;;;;;;4.64;100.00;101145.42;109313;1253;59001;-57
2023/10/30 03:50:00;;;;;;;15.30;11.90;;;;;;;4.74;100.00;101149.66;109397;1253;60074;-56
2023/10/30 03:52:28;;;;;;;17.10;13.10;;;;;;;4.83;100.00;101145.06;109378;1252;73867;-56
2023/10/30 03:55:03;;;;;;;15.60;12.10;;;;;;;4.89;100.00;101145.13;109410;1253;66091;-56
2023/10/30 03:57:31;;;;;;;17.00;12.00;;;;;;;4.91;100.00;101146.73;109405;1253;72694;-56
2023/10/30 03:59:59;;;;;;;14.80;11.90;;;;;;;4.92;100.00;101147.28;109409;1252;60152;-57
2023/10/30 04:02:28;;;;;;;14.90;11.80;;;;;;;4.94;100.00;101153.66;109352;1253;58501;-56
2023/10/30 04:04:55;;;;;;;17.40;12.40;;;;;;;4.96;100.00;101155.91;109336;1253;73939;-63
2023/10/30 04:07:24;;;;;;;17.80;12.70;;;;;;;4.97;100.00;101158.42;109363;1253;67222;-57
2023/10/30 04:09:51;;;;;;;15.70;11.50;;;;;;;4.99;100.00;101163.59;109349;1253;71370;-56
2023/10/30 04:12:20;;;;;;;14.60;10.60;;;;;;;5.00;100.00;101168.02;109351;1253;58867;-57
2023/10/30 04:14:48;;;;;;;16.00;11.60;;;;;;;4.99;100.00;101175.80;109391;1253;60047;-57
2023/10/30 04:17:16;;;;;;;12.00;9.70;;;;;;;4.98;100.00;101182.61;109347;1253;72947;-59
2023/10/30 04:19:43;;;;;;;12.80;9.60;;;;;;;4.98;100.00;101181.27;109455;1253;65703;-57
2023/10/30 04:22:11;;;;;;;12.50;8.90;;;;;;;4.98;100.00;101180.19;109327;1253;71437;-57
2023/10/30 04:24:39;;;;;;;13.00;9.50;;;;;;;5.00;100.00;101182.30;109369;1253;61770;-57
2023/10/30 04:27:06;;;;;;;13.40;10.30;;;;;;;5.03;100.00;101181.20;109359;1253;60090;-60
2023/10/30 04:29:34;;;;;;;13.70;9.20;;;;;;;5.07;100.00;101183.45;109409;1253;73947;-57
2023/10/30 04:32:02;;;;;;;12.30;9.80;;;;;;;5.10;100.00;101184.89;109399;1253;66973;-57
2023/10/30 04:34:30;;;;;;;13.10;10.70;;;;;;;5.17;100.00;101191.29;109357;1253;71448;-56
2023/10/30 04:36:58;;;;;;;13.30;9.40;;;;;;;5.24;100.00;101190.23;109414;1251;60470;-64
2023/10/30 04:39:26;;;;;;;12.40;9.10;;;;;;;5.30;100.00;101190.73;109377;1252;58832;-57
2023/10/30 04:41:55;;;;;;;12.50;8.70;;;;;;;5.39;100.00;101192.73;109436;1253;71659;-57
2023/10/30 04:44:23;;;;;;;12.60;9.10;;;;;;;5.48;100.00;101200.61;109410;1251;67254;-59
2023/10/30 04:46:50;;;;;;;12.70;9.10;;;;;;;5.57;100.00;101208.46;109350;1253;72705;-61
2023/10/30 04:49:18;;;;;;;12.20;8.60;;;;;;;5.67;100.00;101212.69;109438;1253;60486;-60
2023/10/30 04:51:46;;;;;;;11.50;9.00;;;;;;;5.76;100.00;101211.56;109384;1253;60119;-59
2023/10/30 04:54:13;;;;;;;12.10;8.70;;;;;;;5.85;100.00;101214.27;109389;1253;72661;-59
2023/10/30 04:56:41;;;;;;;13.90;9.60;;;;;;;5.92;100.00;101217.81;109326;1253;67201;-62
2023/10/30 04:59:08;;;;;;;13.30;9.00;;;;;;;6.00;100.00;101216.77;109377;1253;72388;-60
2023/10/30 05:01:36;;;;;;;12.80;9.00;;;;;;;6.09;100.00;101223.80;109407;1253;60591;-59
2023/10/30 05:04:04;;;;;;;13.70;9.10;;;;;;;6.20;100.00;101226.50;109395;1253;60341;-59
2023/10/30 05:06:32;;;;;;;14.20;10.00;;;;;;;6.35;100.00;101232.28;109390;1253;73103;-66
2023/10/30 05:09:00;;;;;;;12.00;9.60;;;;;;;6.52;100.00;101232.91;109335;1251;66128;-57
2023/10/30 05:11:28;;;;;;;12.60;9.50;;;;;;;6.69;100.00;101230.27;109465;1251;72733;-58
2023/10/30 05:13:55;;;;;;;11.80;9.50;;;;;;;6.81;100.00;101230.17;109456;1251;58847;-60
2023/10/30 05:16:23;;;;;;;12.00;9.80;;;;;;;6.93;100.00;101228.17;109365;1254;58525;-61
2023/10/30 05:18:51;;;;;;;14.50;10.00;;;;;;;6.99;100.00;101231.53;109455;1251;72553;-60
2023/10/30 05:21:18;;;;;;;12.00;9.30;;;;;;;7.09;100.00;101232.63;109540;1251;65675;-58
2023/10/30 05:23:46;;;;;;;14.50;10.50;;;;;;;7.26;100.00;101232.60;109497;1251;72685;-58
2023/10/30 05:26:13;;;;;;;15.00;9.30;;;;;;;7.86;100.00;101226.31;109316;1251;61726;-59
2023/10/30 05:28:41;;;;;;;13.40;10.40;;;;;;;8.65;100.00;101227.91;109479;1251;60468;-59
2023/10/30 05:31:09;;;;;;;12.40;9.10;;;;;;;9.43;100.00;101224.38;109464;1251;74362;-57
2023/10/30 05:33:37;;;;;;;13.70;10.10;;;;;;;10.17;100.00;101226.26;109459;1251;66947;-58
2023/10/30 05:36:05;;;;;;;17.10;14.30;;;;;;;10.85;100.00;101231.23;109452;1251;73059;-61
2023/10/30 05:38:33;;;;;;;12.60;10.40;;;;;;;11.33;100.00;101232.45;109490;1253;60789;-58
2023/10/30 05:41:01;;;;;;;12.00;8.60;;;;;;;11.82;100.00;101233.59;109483;1251;60018;-59
2023/10/30 05:43:28;;;;;;;10.90;7.40;;;;;;;12.43;100.00;101237.36;109405;1252;72602;-58
2023/10/30 05:45:56;;;;;;;11.50;8.20;;;;;;;13.02;100.00;101232.21;109372;1253;66872;-61
2023/10/30 05:48:24;;;;;;;8.60;6.80;;;;;;;13.61;100.00;101226.83;109377;1253;72719;-58
2023/10/30 05:50:51;;;;;;;11.40;8.00;;;;;;;13.93;100.00;101229.55;109356;1253;60588;-58
2023/10/30 05:53:19;;;;;;;9.70;7.00;;;;;;;14.05;100.00;101233.90;109285;1253;58840;-58
2023/10/30 05:55:47;;;;;;;10.40;7.90;;;;;;;13.98;100.00;101229.73;109387;1253;72648;-58
2023/10/30 05:58:14;;;;;;;10.30;7.60;;;;;;;13.80;100.00;101218.50;109383;1253;67195;-58
2023/10/30 06:00:43;;;;;;;11.00;7.50;;;;;;;13.72;100.00;101209.81;109440;1252;71481;-59
2023/10/30 06:03:11;;;;;;;12.90;8.60;;;;;;;13.87;100.00;101202.18;109424;1253;60325;-58
2023/10/30 06:05:38;;;;;;;9.30;7.20;;;;;;;14.24;100.00;101193.94;109496;1252;58861;-58
2023/10/30 06:08:06;;;;;;;10.80;7.80;;;;;;;14.82;100.00;101184.45;109228;1251;73837;-59
2023/10/30 06:10:34;;;;;;;10.00;7.90;;;;;;;15.50;100.00;101167.20;109408;1252;66987;-59
2023/10/30 06:13:01;;;;;;;9.50;8.00;;;;;;;16.14;100.00;101151.17;109475;1253;72420;-58
2023/10/30 06:15:30;;;;;;;10.10;8.50;;;;;;;16.84;100.00;101125.22;109383;1252;60122;-58
2023/10/30 06:17:58;;;;;;;9.00;8.00;;;;;;;17.48;100.00;101096.46;109397;1252;60157;-61
2023/10/30 06:20:25;;;;;;;12.30;9.20;;;;;;;17.92;100.00;101065.85;109454;1253;74297;-58
2023/10/30 06:22:53;;;;;;;11.00;8.50;;;;;;;18.29;100.00;101044.94;109464;1253;66949;-58
2023/10/30 06:25:20;;;;;;;11.00;9.20;;;;;;;18.74;100.00;101032.48;109418;1252;71522;-58
2023/10/30 06:27:48;;;;;;;12.10;10.40;;;;;;;19.07;100.00;101016.05;109446;1253;60120;-58
2023/10/30 06:30:17;;;;;;;12.30;9.70;;;;;;;19.13;100.00;101004.64;109391;1253;60089;-58
2023/10/30 06:32:44;;;;;;;14.10;10.40;;;;;;;19.11;100.00;100996.10;109465;1253;73927;-60
2023/10/30 06:35:12;;;;;;;12.40;9.50;;;;;;;18.90;100.00;100994.83;109464;1253;67548;-59
2023/10/30 06:37:40;;;;;;;12.50;10.90;;;;;;;18.73;100.00;100994.17;109430;1253;72743;-59
2023/10/30 06:40:08;;;;;;;12.40;10.00;;;;;;;18.59;100.00;100996.20;109373;1253;60177;-59
2023/10/30 06:42:36;;;;;;;11.30;9.60;;;;;;;18.54;100.00;100992.11;109413;1253;58782;-59
2023/10/30 06:45:04;;;;;;;12.80;9.80;;;;;;;18.49;100.00;100985.50;109397;1253;73944;-58
2023/10/30 06:47:32;;;;;;;10.40;9.20;;;;;;;18.36;100.00;100983.42;109430;1253;67016;-59
2023/10/30 06:49:59;;;;;;;11.60;9.40;;;;;;;18.26;100.00;100982.48;109374;1253;72766;-64
2023/10/30 06:52:27;;;;;;;12.30;9.70;;;;;;;18.05;100.00;100980.54;109382;1253;60514;-61
2023/10/30 06:54:55;;;;;;;11.50;9.80;;;;;;;17.82;100.00;100985.41;109409;1253;60121;-61
2023/10/30 06:57:23;;;;;;;11.60;10.40;;;;;;;17.55;100.00;100992.35;109457;1253;73944;-60
2023/10/30 06:59:52;;;;;;;11.30;9.50;;;;;;;17.31;100.00;100993.55;109419;1253;65715;-59
2023/10/30 07:02:20;;;;;;;11.50;9.60;;;;;;;17.17;100.00;100994.79;109449;1253;72161;-58
2023/10/30 07:04:48;;;;;;;13.70;10.50;;;;;;;17.13;100.00;100997.97;109438;1253;60175;-58
2023/10/30 07:07:15;;;;;;;16.70;9.70;;;;;;;17.18;100.00;100997.98;109413;1253;59831;-58
2023/10/30 07:09:43;;;;;;;13.70;9.20;;;;;;;17.29;100.00;100992.05;109444;1252;72653;-59
2023/10/30 07:12:11;;;;;;;11.50;9.80;;;;;;;17.39;100.00;100993.20;109386;1253;65716;-58
2023/10/30 07:14:39;;;;;;;11.40;9.00;;;;;;;17.55;100.00;100992.51;109397;1253;73612;-59
2023/10/30 07:17:07;;;;;;;11.30;9.10;;;;;;;17.77;100.00;100992.33;109373;1254;59862;-57
2023/10/30 07:19:35;;;;;;;11.40;8.90;;;;;;;18.02;100.00;100997.36;109411;1253;59222;-57
2023/10/30 07:22:04;;;;;;;11.10;9.00;;;;;;;18.40;100.00;100993.09;109360;1253;73399;-60
2023/10/30 07:24:32;;;;;;;11.40;9.30;;;;;;;18.88;100.00;100989.44;109381;1253;65474;-57
2023/10/30 07:26:59;;;;;;;11.90;8.80;;;;;;;19.39;100.00;100988.39;109412;1253;72718;-57
2023/10/30 07:29:27;;;;;;;10.50;7.90;;;;;;;19.80;100.00;100982.73;109392;1253;60176;-58
2023/10/30 07:31:55;;;;;;;10.30;7.90;;;;;;;20.10;100.00;100989.55;109381;1253;59341;-57
2023/10/30 07:34:23;;;;;;;13.20;7.80;;;;;;;20.26;100.00;100992.11;109392;1252;73933;-58
2023/10/30 07:36:50;;;;;;;11.20;9.00;;;;;;;20.29;100.00;100996.41;109445;1253;65658;-58
2023/10/30 07:39:18;;;;;;;11.00;8.40;;;;;;;20.26;100.00;100995.38;109375;1253;72859;-57
2023/10/30 07:41:46;;;;;;;10.70;8.30;;;;;;;20.23;100.00;100996.20;109330;1253;59281;-58
2023/10/30 07:44:14;;;;;;;10.60;7.60;;;;;;;20.20;100.00;100996.73;109407;1253;60107;-59
2023/10/30 07:46:41;;;;;;;10.20;6.60;;;;;;;20.10;100.00;100998.19;109136;1252;363168;-59
2023/10/30 07:49:09;;;;;;;10.10;7.00;;;;;;;20.07;100.00;101000.33;109437;1253;65657;-58
2023/10/30 07:51:37;;;;;;;10.20;6.70;;;;;;;20.08;100.00;101005.16;109389;1253;71640;-66
2023/10/30 07:54:06;;;;;;;9.20;7.00;;;;;;;20.13;100.00;101004.83;109354;1253;60414;-58
2023/10/30 07:56:33;;;;;;;9.30;7.40;;;;;;;20.24;100.00;100998.26;109391;1253;60596;-58
2023/10/30 07:59:01;;;;;;;10.20;6.90;;;;;;;20.38;100.00;100993.49;109387;1253;73986;-58
2023/10/30 08:01:28;;;;;;;9.80;7.40;;;;;;;20.49;100.00;100994.35;109302;1253;65487;-68
2023/10/30 08:03:56;;;;;;;10.80;7.60;;;;;;;20.55;100.00;100995.27;109385;1253;71431;-58
2023/10/30 08:06:24;;;;;;;9.70;7.80;;;;;;;20.65;100.00;100998.41;109373;1253;60496;-58
2023/10/30 08:08:52;;;;;;;10.30;7.30;;;;;;;20.77;100.00;100995.86;109404;1253;60146;-57
2023/10/30 08:11:20;;;;;;;10.60;7.40;;;;;;;20.86;100.00;100995.68;109205;1253;72531;-61
2023/10/30 08:13:48;;;;;;;9.80;7.20;;;;;;;20.92;100.00;100995.74;109359;1253;70101;-58
2023/10/30 08:16:15;;;;;;;9.30;7.10;;;;;;;20.98;100.00;100990.43;109341;1253;71456;-58
2023/10/30 08:18:43;;;;;;;8.90;6.60;;;;;;;21.17;100.00;100988.84;109358;1253;60549;-57
2023/10/30 08:21:11;;;;;;;10.20;7.10;;;;;;;21.39;100.00;100987.75;109405;1253;60112;-57
2023/10/30 08:23:38;;;;;;;10.20;7.90;;;;;;;21.50;100.00;100993.27;109263;1253;73779;-68
2023/10/30 08:26:06;;;;;;;9.40;6.90;;;;;;;21.46;100.00;100984.71;109417;1252;65778;-58
2023/10/30 08:28:34;;;;;;;10.60;7.60;;;;;;;21.50;100.00;100987.11;109326;1253;72058;-59
2023/10/30 08:31:01;;;;;;;9.50;6.70;;;;;;;21.56;100.00;100985.64;109358;1252;60604;-59
2023/10/30 08:33:29;;;;;;;10.40;7.00;;;;;;;21.58;100.00;100983.02;109353;1253;60061;-58
2023/10/30 08:35:57;;;;;;;11.90;7.20;;;;;;;21.60;100.00;100976.58;109336;1253;75503;-59
2023/10/30 08:38:24;;;;;;;9.60;6.90;;;;;;;21.59;100.00;100977.13;109410;1253;66929;-58
2023/10/30 08:40:52;;;;;;;11.70;7.10;;;;;;;21.59;100.00;100975.86;109370;1253;71140;-59
2023/10/30 08:43:20;;;;;;;13.10;7.30;;;;;;;21.66;100.00;100971.75;109386;1253;60525;-59
2023/10/30 08:45:48;;;;;;;9.90;7.30;;;;;;;21.68;100.00;100973.95;109317;1253;60419;-64
2023/10/30 08:48:15;;;;;;;14.00;7.50;;;;;;;21.64;100.00;100976.27;109197;1252;73088;-60
2023/10/30 08:50:46;;;;;;;11.60;7.50;;;;;;;21.60;100.00;100972.77;109391;1253;65493;-59
2023/10/30 08:53:15;;;;;;;12.60;7.20;;;;;;;21.62;100.00;100967.06;109359;1253;71467;-60
2023/10/30 08:55:43;;;;;;;11.10;8.00;;;;;;;21.61;100.00;100962.05;109326;1253;60226;-60
2023/10/30 08:58:10;;;;;;;14.90;6.80;;;;;;;21.59;100.00;100956.79;109375;1253;61147;-61
2023/10/30 09:00:38;;;;;;;11.00;6.20;;;;;;;21.60;100.00;100950.32;109388;1253;73809;-61
2023/10/30 09:03:06;;;;;;;8.80;5.90;;;;;;;21.68;100.00;100958.02;109401;1253;67159;-59
2023/10/30 09:05:34;;;;;;;13.10;6.70;;;;;;;21.87;100.00;100947.95;109458;1253;73120;-59
2023/10/30 09:08:02;;;;;;;13.30;6.00;;;;;;;22.01;100.00;100942.58;109434;1252;60549;-60
2023/10/30 09:10:32;;;;;;;10.00;5.60;;;;;;;22.03;100.00;100940.49;109407;1252;60890;-59
2023/10/30 09:13:00;;;;;;;11.10;5.30;;;;;;;21.95;100.00;100940.23;109402;1253;72714;-57
2023/10/30 09:15:28;;;;;;;8.60;5.10;;;;;;;21.79;100.00;100937.52;109281;1253;69267;-58
2023/10/30 09:17:55;;;;;;;10.40;5.70;;;;;;;21.71;100.00;100931.30;109406;1251;73637;-69
2023/10/30 09:20:23;;;;;;;11.30;5.10;;;;;;;21.63;100.00;100931.31;109380;1253;60128;-60
2023/10/30 09:22:51;;;;;;;10.00;5.40;;;;;;;21.52;100.00;100930.91;109456;1252;58838;-59
2023/10/30 09:25:18;;;;;;;11.20;6.20;;;;;;;21.50;100.00;100933.00;109493;1253;74457;-61
2023/10/30 09:27:47;;;;;;;9.80;6.10;;;;;;;21.54;100.00;100925.48;109439;1253;67608;-62
2023/10/30 09:30:18;;;;;;;10.90;5.40;;;;;;;21.62;100.00;100926.47;109418;1253;74625;-57
2023/10/30 09:32:46;;;;;;;9.20;5.50;;;;;;;21.68;100.00;100918.81;109389;1252;60138;-58
2023/10/30 09:35:14;;;;;;;13.60;6.30;;;;;;;21.70;100.00;100918.48;109427;1253;60029;-59
2023/10/30 09:37:42;;;;;;;11.90;5.90;;;;;;;21.77;100.00;100913.39;109398;1253;76015;-66
2023/10/30 09:40:12;;;;;;;11.40;6.10;;;;;;;21.85;100.00;100911.81;109431;1251;65677;-57
2023/10/30 09:42:49;;;;;;;7.90;4.10;;;;;;;21.98;100.00;100914.08;109484;1253;73699;-57
2023/10/30 09:45:17;;;;;;;7.50;4.30;;;;;;;22.10;98.87;100906.45;109415;1253;60976;-56
2023/10/30 09:47:45;;;;;;;7.90;4.50;;;;;;;22.09;94.96;100903.11;109271;1252;61494;-64
2023/10/30 09:50:12;;;;;;;9.50;6.20;;;;;;;22.01;96.41;100910.04;109425;1252;72863;-58
2023/10/30 09:52:40;;;;;;;7.90;4.70;;;;;;;21.99;96.21;100910.29;109403;1252;67052;-57
2023/10/30 09:55:11;;;;;;;8.70;4.60;;;;;;;21.92;96.66;100909.75;109217;1253;72555;-58
2023/10/30 09:57:39;;;;;;;9.10;4.20;;;;;;;21.85;98.47;100909.27;109334;1253;59239;-59
2023/10/30 10:00:07;;;;;;;7.80;4.60;;;;;;;21.85;98.20;100907.77;109429;1253;60606;-58
2023/10/30 10:02:35;;;;;;;8.20;4.40;;;;;;;21.86;99.06;100903.55;109290;1252;72400;-58
2023/10/30 10:05:04;;;;;;;8.30;3.70;;;;;;;21.90;100.00;100908.29;109174;1252;65595;-59
2023/10/30 10:07:32;;;;;;;7.40;4.10;;;;;;;22.04;99.52;100899.73;109396;1253;73206;-59
2023/10/30 10:10:01;;;;;;;8.30;4.00;;;;;;;22.17;97.41;100899.04;109400;1253;58872;-59
2023/10/30 10:12:30;;;;;;;6.30;3.70;;;;;;;22.29;94.12;100895.60;109281;1253;59279;-62
2023/10/30 10:14:58;;;;;;;5.20;3.10;;;;;;;22.34;89.94;100894.08;109387;1256;72656;-58
2023/10/30 10:17:25;;;;;;;6.80;3.00;;;;;;;22.31;89.89;100890.97;109369;1252;65594;-59
2023/10/30 10:19:53;;;;;;;6.00;3.30;;;;;;;22.33;92.22;100891.05;109382;1253;73692;-58
2023/10/30 10:22:28;;;;;;;5.70;2.60;;;;;;;22.34;86.40;100885.67;109397;1252;60037;-58
2023/10/30 10:24:59;;;;;;;5.10;3.00;;;;;;;22.25;89.90;100890.83;109414;1253;59997;-58
2023/10/30 10:27:27;;;;;;;4.40;2.90;;;;;;;22.25;89.56;100886.99;109384;1253;76370;-59
2023/10/30 10:29:56;;;;;;;8.30;3.70;;;;;;;22.20;88.66;100884.00;109431;1253;66169;-60
2023/10/30 10:32:27;;;;;;;4.50;2.60;;;;;;;22.25;89.03;100883.05;109309;1254;71093;-58
2023/10/30 10:35:07;;;;;;;;;;;;;;;22.27;85.95;100883.61;109364;1253;59876;-56
2023/10/30 10:37:35;;;;;;;5.50;3.00;;;;;;;22.15;82.76;100889.59;109356;1256;58248;-59
2023/10/30 10:40:05;;;;;;;4.50;2.60;;;;;;;22.01;84.23;100886.38;109420;1252;74337;-58
2023/10/30 10:42:33;;;;;;;5.90;2.60;;;;;;;21.91;87.24;100887.81;109412;1254;65469;-58
2023/10/30 10:45:02;;;;;;;6.20;2.50;;;;;;;21.91;91.42;100888.17;109358;1251;72132;-65
2023/10/30 10:47:29;;;;;;;4.90;3.10;;;;;;;21.94;89.38;100880.47;109473;1251;59850;-60
2023/10/30 10:49:57;;;;;;;6.00;2.40;;;;;;;21.89;92.44;100882.10;109348;1252;59925;-58
2023/10/30 10:52:25;;;;;;;4.50;2.80;;;;;;;21.89;92.90;100873.87;109365;1254;73656;-58
2023/10/30 10:55:05;;;;;;;7.10;3.70;;;;;;;21.83;92.43;100875.75;109344;1253;68397;-65
2023/10/30 10:57:45;;;;;;;5.50;3.10;;;;;;;21.74;95.75;100870.35;109223;1252;74861;-61
2023/10/30 11:00:13;;;;;;;8.00;5.30;;;;;;;21.76;96.41;100863.00;109286;1253;62242;-59
2023/10/30 11:02:41;;;;;;;14.10;9.30;;;;;;;21.81;96.55;100856.55;109333;1254;59029;-66
2023/10/30 11:05:09;;;;;;;11.60;7.80;;;;;;;21.89;95.55;100855.82;109404;1252;73947;-59
2023/10/30 11:07:41;;;;;;;17.40;12.30;;;;;;;22.00;95.85;100848.91;109314;1253;66850;-60